Terminal Aerodrome Forecast
Issued by NWS Brownsville, TX

Home | Current Version | Previous Version | Text Only | Print | Product List | Glossary On
Versions: 1 2 3 4 5 6 7 8 9 10 11 12 13 14 15 16 17 18 19
505
FTUS44 KBRO 211201 CCA
TAFHRL
TAF COR
KHRL 211201Z 2112/2212 14012KT P6SM FEW015 BKN019 OVC028
     FM211500 16018G24KT P6SM BKN025
     FM220300 15012KT P6SM BKN015
     FM220500 15004KT P6SM BKN010=

USA.gov is the U.S. government's official web portal to all federal, state and local government web resources and services.